sensor_id;sensor_type;location;lat;lon;timestamp;P1;durP1;ratioP1;P2;durP2;ratioP2
19089;SDS011;9677;50.656;13.064;2022-08-25T00:00:22;10.83;;;9.73;;
19089;SDS011;9677;50.656;13.064;2022-08-25T00:02:50;10.80;;;9.70;;
19089;SDS011;9677;50.656;13.064;2022-08-25T00:05:23;11.30;;;10.10;;
19089;SDS011;9677;50.656;13.064;2022-08-25T00:07:55;10.90;;;9.80;;
19089;SDS011;9677;50.656;13.064;2022-08-25T00:10:23;11.23;;;10.13;;
19089;SDS011;9677;50.656;13.064;2022-08-25T00:12:52;11.03;;;9.93;;
19089;SDS011;9677;50.656;13.064;2022-08-25T00:15:22;11.13;;;10.07;;
19089;SDS011;9677;50.656;13.064;2022-08-25T00:17:51;11.30;;;9.70;;
19089;SDS011;9677;50.656;13.064;2022-08-25T00:20:19;11.00;;;9.90;;
19089;SDS011;9677;50.656;13.064;2022-08-25T00:22:48;10.70;;;9.60;;
19089;SDS011;9677;50.656;13.064;2022-08-25T00:25:17;11.27;;;10.17;;
19089;SDS011;9677;50.656;13.064;2022-08-25T00:27:45;10.50;;;9.50;;
19089;SDS011;9677;50.656;13.064;2022-08-25T00:30:14;10.90;;;9.80;;
19089;SDS011;9677;50.656;13.064;2022-08-25T00:32:45;11.63;;;10.47;;
19089;SDS011;9677;50.656;13.064;2022-08-25T00:35:22;10.73;;;9.63;;
19089;SDS011;9677;50.656;13.064;2022-08-25T00:37:52;10.37;;;9.37;;
19089;SDS011;9677;50.656;13.064;2022-08-25T00:40:21;11.07;;;9.93;;
19089;SDS011;9677;50.656;13.064;2022-08-25T00:42:51;10.80;;;9.80;;
19089;SDS011;9677;50.656;13.064;2022-08-25T00:45:20;11.20;;;10.10;;
19089;SDS011;9677;50.656;13.064;2022-08-25T00:47:50;11.47;;;10.37;;
19089;SDS011;9677;50.656;13.064;2022-08-25T00:50:21;10.47;;;9.47;;
19089;SDS011;9677;50.656;13.064;2022-08-25T00:52:53;11.17;;;10.07;;
19089;SDS011;9677;50.656;13.064;2022-08-25T00:55:24;11.40;;;10.20;;
19089;SDS011;9677;50.656;13.064;2022-08-25T00:57:57;10.60;;;9.50;;
19089;SDS011;9677;50.656;13.064;2022-08-25T01:00:35;10.40;;;9.40;;
19089;SDS011;9677;50.656;13.064;2022-08-25T01:03:08;10.90;;;9.80;;
19089;SDS011;9677;50.656;13.064;2022-08-25T01:05:37;11.13;;;9.93;;
19089;SDS011;9677;50.656;13.064;2022-08-25T01:08:08;10.77;;;9.73;;
19089;SDS011;9677;50.656;13.064;2022-08-25T01:10:42;10.93;;;9.83;;
19089;SDS011;9677;50.656;13.064;2022-08-25T01:13:13;11.17;;;10.07;;
19089;SDS011;9677;50.656;13.064;2022-08-25T01:15:47;12.00;;;9.60;;
19089;SDS011;9677;50.656;13.064;2022-08-25T01:18:20;10.43;;;9.43;;
19089;SDS011;9677;50.656;13.064;2022-08-25T01:20:51;11.30;;;10.20;;
19089;SDS011;9677;50.656;13.064;2022-08-25T01:23:22;10.77;;;9.67;;
19089;SDS011;9677;50.656;13.064;2022-08-25T01:25:52;10.80;;;9.80;;
19089;SDS011;9677;50.656;13.064;2022-08-25T01:28:27;10.90;;;9.90;;
19089;SDS011;9677;50.656;13.064;2022-08-25T01:30:55;10.77;;;9.67;;
19089;SDS011;9677;50.656;13.064;2022-08-25T01:33:24;11.23;;;10.03;;
19089;SDS011;9677;50.656;13.064;2022-08-25T01:35:54;10.60;;;9.60;;
19089;SDS011;9677;50.656;13.064;2022-08-25T01:38:23;11.10;;;10.00;;
19089;SDS011;9677;50.656;13.064;2022-08-25T01:40:52;10.77;;;9.67;;
19089;SDS011;9677;50.656;13.064;2022-08-25T01:43:21;10.80;;;9.77;;
19089;SDS011;9677;50.656;13.064;2022-08-25T01:45:58;11.40;;;10.20;;
19089;SDS011;9677;50.656;13.064;2022-08-25T01:48:26;10.87;;;9.77;;
19089;SDS011;9677;50.656;13.064;2022-08-25T01:50:56;11.47;;;10.27;;
19089;SDS011;9677;50.656;13.064;2022-08-25T01:53:25;11.00;;;10.00;;
19089;SDS011;9677;50.656;13.064;2022-08-25T01:55:59;11.50;;;10.40;;
19089;SDS011;9677;50.656;13.064;2022-08-25T01:58:38;11.00;;;9.90;;
19089;SDS011;9677;50.656;13.064;2022-08-25T02:01:09;11.00;;;9.90;;
19089;SDS011;9677;50.656;13.064;2022-08-25T02:03:45;11.10;;;10.00;;
19089;SDS011;9677;50.656;13.064;2022-08-25T02:06:19;10.60;;;9.60;;
19089;SDS011;9677;50.656;13.064;2022-08-25T02:08:56;10.73;;;9.70;;
19089;SDS011;9677;50.656;13.064;2022-08-25T02:11:27;10.50;;;9.50;;
19089;SDS011;9677;50.656;13.064;2022-08-25T02:13:55;11.33;;;10.07;;
19089;SDS011;9677;50.656;13.064;2022-08-25T02:16:26;11.40;;;10.30;;
19089;SDS011;9677;50.656;13.064;2022-08-25T02:19:00;10.87;;;9.77;;
19089;SDS011;9677;50.656;13.064;2022-08-25T02:21:30;10.70;;;9.70;;
19089;SDS011;9677;50.656;13.064;2022-08-25T02:23:59;11.07;;;9.97;;
19089;SDS011;9677;50.656;13.064;2022-08-25T02:26:28;11.10;;;10.00;;
19089;SDS011;9677;50.656;13.064;2022-08-25T02:28:57;11.13;;;10.03;;
19089;SDS011;9677;50.656;13.064;2022-08-25T02:31:25;10.77;;;9.67;;
19089;SDS011;9677;50.656;13.064;2022-08-25T02:33:55;11.17;;;9.70;;
19089;SDS011;9677;50.656;13.064;2022-08-25T02:36:23;10.77;;;9.67;;
19089;SDS011;9677;50.656;13.064;2022-08-25T02:38:53;11.17;;;10.07;;
19089;SDS011;9677;50.656;13.064;2022-08-25T02:41:22;11.40;;;10.20;;
19089;SDS011;9677;50.656;13.064;2022-08-25T02:43:57;10.90;;;9.80;;
19089;SDS011;9677;50.656;13.064;2022-08-25T02:46:27;12.20;;;9.83;;
19089;SDS011;9677;50.656;13.064;2022-08-25T02:48:56;11.30;;;10.10;;
19089;SDS011;9677;50.656;13.064;2022-08-25T02:51:25;11.23;;;10.13;;
19089;SDS011;9677;50.656;13.064;2022-08-25T02:53:58;11.00;;;9.80;;
19089;SDS011;9677;50.656;13.064;2022-08-25T02:56:28;10.97;;;9.87;;
19089;SDS011;9677;50.656;13.064;2022-08-25T02:58:57;11.10;;;9.80;;
19089;SDS011;9677;50.656;13.064;2022-08-25T03:01:27;12.30;;;10.00;;
19089;SDS011;9677;50.656;13.064;2022-08-25T03:03:56;11.17;;;10.07;;
19089;SDS011;9677;50.656;13.064;2022-08-25T03:06:27;11.10;;;10.00;;
19089;SDS011;9677;50.656;13.064;2022-08-25T03:08:57;11.10;;;10.00;;
19089;SDS011;9677;50.656;13.064;2022-08-25T03:11:26;11.10;;;10.00;;
19089;SDS011;9677;50.656;13.064;2022-08-25T03:13:55;10.87;;;9.83;;
19089;SDS011;9677;50.656;13.064;2022-08-25T03:16:23;10.87;;;9.77;;
19089;SDS011;9677;50.656;13.064;2022-08-25T03:18:53;10.53;;;9.53;;
19089;SDS011;9677;50.656;13.064;2022-08-25T03:21:23;10.40;;;9.40;;
19089;SDS011;9677;50.656;13.064;2022-08-25T03:23:51;11.77;;;9.97;;
19089;SDS011;9677;50.656;13.064;2022-08-25T03:26:22;10.80;;;9.70;;
19089;SDS011;9677;50.656;13.064;2022-08-25T03:29:08;10.60;;;9.60;;
19089;SDS011;9677;50.656;13.064;2022-08-25T03:31:37;11.57;;;10.37;;
19089;SDS011;9677;50.656;13.064;2022-08-25T03:34:05;10.90;;;9.80;;
19089;SDS011;9677;50.656;13.064;2022-08-25T03:36:34;11.37;;;10.27;;
19089;SDS011;9677;50.656;13.064;2022-08-25T03:39:03;10.77;;;9.77;;
19089;SDS011;9677;50.656;13.064;2022-08-25T03:41:35;10.73;;;9.70;;
19089;SDS011;9677;50.656;13.064;2022-08-25T03:44:03;11.73;;;10.53;;
19089;SDS011;9677;50.656;13.064;2022-08-25T03:46:37;11.27;;;10.17;;
19089;SDS011;9677;50.656;13.064;2022-08-25T03:49:08;11.60;;;9.50;;
19089;SDS011;9677;50.656;13.064;2022-08-25T03:51:40;11.20;;;10.10;;
19089;SDS011;9677;50.656;13.064;2022-08-25T03:54:13;10.60;;;9.60;;
19089;SDS011;9677;50.656;13.064;2022-08-25T03:56:43;11.00;;;9.87;;
19089;SDS011;9677;50.656;13.064;2022-08-25T03:59:12;11.30;;;10.07;;
19089;SDS011;9677;50.656;13.064;2022-08-25T04:01:41;11.17;;;10.07;;
19089;SDS011;9677;50.656;13.064;2022-08-25T04:04:12;10.77;;;9.77;;
19089;SDS011;9677;50.656;13.064;2022-08-25T04:06:42;11.00;;;9.90;;
19089;SDS011;9677;50.656;13.064;2022-08-25T04:09:12;11.30;;;10.20;;
19089;SDS011;9677;50.656;13.064;2022-08-25T04:11:40;10.70;;;9.63;;
19089;SDS011;9677;50.656;13.064;2022-08-25T04:14:11;10.90;;;9.83;;
19089;SDS011;9677;50.656;13.064;2022-08-25T04:16:42;11.17;;;10.07;;
19089;SDS011;9677;50.656;13.064;2022-08-25T04:19:12;10.90;;;9.90;;
19089;SDS011;9677;50.656;13.064;2022-08-25T04:21:40;11.27;;;10.13;;
19089;SDS011;9677;50.656;13.064;2022-08-25T04:24:09;10.67;;;9.67;;
19089;SDS011;9677;50.656;13.064;2022-08-25T04:26:40;11.13;;;10.07;;
19089;SDS011;9677;50.656;13.064;2022-08-25T04:29:13;10.97;;;9.83;;
19089;SDS011;9677;50.656;13.064;2022-08-25T04:31:49;10.90;;;9.80;;
19089;SDS011;9677;50.656;13.064;2022-08-25T04:34:20;11.30;;;10.10;;
19089;SDS011;9677;50.656;13.064;2022-08-25T04:36:57;11.57;;;10.37;;
19089;SDS011;9677;50.656;13.064;2022-08-25T04:39:27;10.93;;;9.83;;
19089;SDS011;9677;50.656;13.064;2022-08-25T04:41:56;10.87;;;9.87;;
19089;SDS011;9677;50.656;13.064;2022-08-25T04:44:28;11.30;;;10.20;;
19089;SDS011;9677;50.656;13.064;2022-08-25T04:46:57;10.93;;;9.83;;
19089;SDS011;9677;50.656;13.064;2022-08-25T04:49:26;11.43;;;10.30;;
19089;SDS011;9677;50.656;13.064;2022-08-25T04:51:55;11.00;;;9.90;;
19089;SDS011;9677;50.656;13.064;2022-08-25T04:54:23;10.90;;;9.80;;
19089;SDS011;9677;50.656;13.064;2022-08-25T04:56:53;11.30;;;10.20;;
19089;SDS011;9677;50.656;13.064;2022-08-25T04:59:24;11.70;;;10.50;;
19089;SDS011;9677;50.656;13.064;2022-08-25T05:01:56;11.57;;;10.37;;
19089;SDS011;9677;50.656;13.064;2022-08-25T05:04:28;10.97;;;9.87;;
19089;SDS011;9677;50.656;13.064;2022-08-25T05:06:59;10.90;;;9.80;;
19089;SDS011;9677;50.656;13.064;2022-08-25T05:09:27;10.70;;;9.70;;
19089;SDS011;9677;50.656;13.064;2022-08-25T05:11:58;11.03;;;9.90;;
19089;SDS011;9677;50.656;13.064;2022-08-25T05:14:29;11.07;;;9.97;;
19089;SDS011;9677;50.656;13.064;2022-08-25T05:16:59;11.27;;;10.17;;
19089;SDS011;9677;50.656;13.064;2022-08-25T05:19:28;11.20;;;10.00;;
19089;SDS011;9677;50.656;13.064;2022-08-25T05:21:56;11.50;;;10.30;;
19089;SDS011;9677;50.656;13.064;2022-08-25T05:24:25;11.40;;;10.30;;
19089;SDS011;9677;50.656;13.064;2022-08-25T05:26:55;11.70;;;10.50;;
19089;SDS011;9677;50.656;13.064;2022-08-25T05:29:23;11.80;;;10.70;;
19089;SDS011;9677;50.656;13.064;2022-08-25T05:31:53;11.60;;;10.40;;
19089;SDS011;9677;50.656;13.064;2022-08-25T05:34:22;11.23;;;10.13;;
19089;SDS011;9677;50.656;13.064;2022-08-25T05:36:51;11.77;;;10.57;;
19089;SDS011;9677;50.656;13.064;2022-08-25T05:39:20;12.63;;;11.17;;
19089;SDS011;9677;50.656;13.064;2022-08-25T05:41:52;11.63;;;10.50;;
19089;SDS011;9677;50.656;13.064;2022-08-25T05:44:20;11.87;;;10.67;;
19089;SDS011;9677;50.656;13.064;2022-08-25T05:46:48;13.10;;;10.70;;
19089;SDS011;9677;50.656;13.064;2022-08-25T05:49:19;12.30;;;10.80;;
19089;SDS011;9677;50.656;13.064;2022-08-25T05:51:47;11.60;;;10.40;;
19089;SDS011;9677;50.656;13.064;2022-08-25T05:54:16;11.70;;;10.57;;
19089;SDS011;9677;50.656;13.064;2022-08-25T05:56:45;11.37;;;10.27;;
19089;SDS011;9677;50.656;13.064;2022-08-25T05:59:13;11.83;;;10.63;;
19089;SDS011;9677;50.656;13.064;2022-08-25T06:01:42;11.80;;;10.60;;
19089;SDS011;9677;50.656;13.064;2022-08-25T06:04:29;11.27;;;10.17;;
19089;SDS011;9677;50.656;13.064;2022-08-25T06:06:57;11.77;;;10.40;;
19089;SDS011;9677;50.656;13.064;2022-08-25T06:09:26;11.43;;;10.30;;
19089;SDS011;9677;50.656;13.064;2022-08-25T06:11:54;11.30;;;10.17;;
19089;SDS011;9677;50.656;13.064;2022-08-25T06:14:23;11.27;;;10.17;;
19089;SDS011;9677;50.656;13.064;2022-08-25T06:16:52;11.40;;;10.20;;
19089;SDS011;9677;50.656;13.064;2022-08-25T06:19:22;11.37;;;10.17;;
19089;SDS011;9677;50.656;13.064;2022-08-25T06:21:53;10.87;;;9.77;;
19089;SDS011;9677;50.656;13.064;2022-08-25T06:24:23;11.17;;;10.07;;
19089;SDS011;9677;50.656;13.064;2022-08-25T06:26:54;10.63;;;9.63;;
19089;SDS011;9677;50.656;13.064;2022-08-25T06:29:22;10.63;;;9.63;;
19089;SDS011;9677;50.656;13.064;2022-08-25T06:31:51;11.10;;;9.90;;
19089;SDS011;9677;50.656;13.064;2022-08-25T06:34:19;11.80;;;10.60;;
19089;SDS011;9677;50.656;13.064;2022-08-25T06:36:50;11.60;;;10.50;;
19089;SDS011;9677;50.656;13.064;2022-08-25T06:39:19;11.13;;;10.03;;
19089;SDS011;9677;50.656;13.064;2022-08-25T06:41:49;10.90;;;9.80;;
19089;SDS011;9677;50.656;13.064;2022-08-25T06:44:19;11.50;;;10.30;;
19089;SDS011;9677;50.656;13.064;2022-08-25T06:46:48;11.40;;;10.23;;
19089;SDS011;9677;50.656;13.064;2022-08-25T06:49:17;11.70;;;10.50;;
19089;SDS011;9677;50.656;13.064;2022-08-25T06:51:46;12.07;;;10.87;;
19089;SDS011;9677;50.656;13.064;2022-08-25T06:54:14;11.57;;;10.47;;
19089;SDS011;9677;50.656;13.064;2022-08-25T06:56:44;21.03;;;11.47;;
19089;SDS011;9677;50.656;13.064;2022-08-25T06:59:15;11.97;;;10.53;;
19089;SDS011;9677;50.656;13.064;2022-08-25T07:01:44;14.80;;;10.40;;
19089;SDS011;9677;50.656;13.064;2022-08-25T07:04:15;12.73;;;10.70;;
19089;SDS011;9677;50.656;13.064;2022-08-25T07:06:44;12.50;;;10.83;;
19089;SDS011;9677;50.656;13.064;2022-08-25T07:09:13;11.30;;;10.20;;
19089;SDS011;9677;50.656;13.064;2022-08-25T07:11:42;12.37;;;11.07;;
19089;SDS011;9677;50.656;13.064;2022-08-25T07:14:14;11.23;;;10.13;;
19089;SDS011;9677;50.656;13.064;2022-08-25T07:16:44;13.10;;;11.20;;
19089;SDS011;9677;50.656;13.064;2022-08-25T07:19:15;12.60;;;11.30;;
19089;SDS011;9677;50.656;13.064;2022-08-25T07:21:48;12.47;;;11.17;;
19089;SDS011;9677;50.656;13.064;2022-08-25T07:24:20;11.93;;;10.63;;
19089;SDS011;9677;50.656;13.064;2022-08-25T07:26:50;13.47;;;11.00;;
19089;SDS011;9677;50.656;13.064;2022-08-25T07:29:20;12.80;;;11.40;;
19089;SDS011;9677;50.656;13.064;2022-08-25T07:31:57;12.23;;;11.03;;
19089;SDS011;9677;50.656;13.064;2022-08-25T07:34:26;12.67;;;11.37;;
19089;SDS011;9677;50.656;13.064;2022-08-25T07:37:18;12.90;;;11.57;;
19089;SDS011;9677;50.656;13.064;2022-08-25T07:40:09;13.27;;;11.10;;
19089;SDS011;9677;50.656;13.064;2022-08-25T07:42:44;12.97;;;11.57;;
19089;SDS011;9677;50.656;13.064;2022-08-25T07:45:13;12.57;;;11.27;;
19089;SDS011;9677;50.656;13.064;2022-08-25T07:47:46;13.07;;;11.67;;
19089;SDS011;9677;50.656;13.064;2022-08-25T07:50:17;13.50;;;11.70;;
19089;SDS011;9677;50.656;13.064;2022-08-25T07:52:46;12.77;;;11.47;;
19089;SDS011;9677;50.656;13.064;2022-08-25T07:55:20;12.50;;;11.20;;
19089;SDS011;9677;50.656;13.064;2022-08-25T07:57:51;13.07;;;11.30;;
19089;SDS011;9677;50.656;13.064;2022-08-25T08:00:22;13.10;;;11.70;;
19089;SDS011;9677;50.656;13.064;2022-08-25T08:02:53;12.37;;;11.07;;
19089;SDS011;9677;50.656;13.064;2022-08-25T08:05:22;15.70;;;11.47;;
19089;SDS011;9677;50.656;13.064;2022-08-25T08:07:52;14.90;;;11.60;;
19089;SDS011;9677;50.656;13.064;2022-08-25T08:10:21;12.90;;;11.50;;
19089;SDS011;9677;50.656;13.064;2022-08-25T08:13:12;12.13;;;10.93;;
19089;SDS011;9677;50.656;13.064;2022-08-25T08:15:44;12.97;;;11.57;;
19089;SDS011;9677;50.656;13.064;2022-08-25T08:18:13;13.93;;;10.70;;
19089;SDS011;9677;50.656;13.064;2022-08-25T08:20:44;12.80;;;11.50;;
19089;SDS011;9677;50.656;13.064;2022-08-25T08:23:13;11.93;;;10.73;;
19089;SDS011;9677;50.656;13.064;2022-08-25T08:25:42;12.63;;;11.13;;
19089;SDS011;9677;50.656;13.064;2022-08-25T08:28:12;12.60;;;11.30;;
19089;SDS011;9677;50.656;13.064;2022-08-25T08:30:41;11.60;;;10.50;;
19089;SDS011;9677;50.656;13.064;2022-08-25T08:33:20;12.13;;;10.90;;
19089;SDS011;9677;50.656;13.064;2022-08-25T08:36:00;11.87;;;10.67;;
19089;SDS011;9677;50.656;13.064;2022-08-25T08:38:32;11.63;;;10.43;;
19089;SDS011;9677;50.656;13.064;2022-08-25T08:41:05;14.00;;;10.70;;
19089;SDS011;9677;50.656;13.064;2022-08-25T08:44:31;11.90;;;10.70;;
19089;SDS011;9677;50.656;13.064;2022-08-25T08:47:10;11.47;;;10.27;;
19089;SDS011;9677;50.656;13.064;2022-08-25T08:49:49;12.57;;;10.90;;
19089;SDS011;9677;50.656;13.064;2022-08-25T08:52:32;12.23;;;10.93;;
19089;SDS011;9677;50.656;13.064;2022-08-25T08:55:10;12.40;;;11.20;;
19089;SDS011;9677;50.656;13.064;2022-08-25T08:57:48;13.30;;;10.47;;
19089;SDS011;9677;50.656;13.064;2022-08-25T09:00:22;12.07;;;10.20;;
19089;SDS011;9677;50.656;13.064;2022-08-25T09:02:52;12.30;;;11.00;;
19089;SDS011;9677;50.656;13.064;2022-08-25T09:05:26;14.73;;;11.00;;
19089;SDS011;9677;50.656;13.064;2022-08-25T09:08:00;13.10;;;10.70;;
19089;SDS011;9677;50.656;13.064;2022-08-25T09:10:36;11.70;;;10.50;;
19089;SDS011;9677;50.656;13.064;2022-08-25T09:13:15;12.20;;;10.40;;
19089;SDS011;9677;50.656;13.064;2022-08-25T09:15:57;12.10;;;10.90;;
19089;SDS011;9677;50.656;13.064;2022-08-25T09:19:02;11.70;;;10.17;;
19089;SDS011;9677;50.656;13.064;2022-08-25T09:21:50;11.37;;;10.17;;
19089;SDS011;9677;50.656;13.064;2022-08-25T09:24:31;11.40;;;10.30;;
19089;SDS011;9677;50.656;13.064;2022-08-25T09:27:12;13.40;;;10.33;;
19089;SDS011;9677;50.656;13.064;2022-08-25T09:29:53;11.50;;;10.30;;
19089;SDS011;9677;50.656;13.064;2022-08-25T09:32:33;11.20;;;9.97;;
19089;SDS011;9677;50.656;13.064;2022-08-25T09:35:06;11.13;;;10.03;;
19089;SDS011;9677;50.656;13.064;2022-08-25T09:37:42;11.57;;;10.00;;
19089;SDS011;9677;50.656;13.064;2022-08-25T09:40:20;11.30;;;10.13;;
19089;SDS011;9677;50.656;13.064;2022-08-25T09:42:52;11.13;;;10.00;;
19089;SDS011;9677;50.656;13.064;2022-08-25T09:45:35;13.63;;;10.87;;
19089;SDS011;9677;50.656;13.064;2022-08-25T09:48:20;11.40;;;10.03;;
19089;SDS011;9677;50.656;13.064;2022-08-25T09:50:52;11.83;;;9.93;;
19089;SDS011;9677;50.656;13.064;2022-08-25T09:53:25;12.00;;;9.80;;
19089;SDS011;9677;50.656;13.064;2022-08-25T09:56:01;10.20;;;9.20;;
19089;SDS011;9677;50.656;13.064;2022-08-25T09:58:33;14.50;;;10.20;;
19089;SDS011;9677;50.656;13.064;2022-08-25T10:01:06;10.53;;;9.43;;
19089;SDS011;9677;50.656;13.064;2022-08-25T10:03:58;10.50;;;9.40;;
19089;SDS011;9677;50.656;13.064;2022-08-25T10:06:32;10.80;;;9.70;;
19089;SDS011;9677;50.656;13.064;2022-08-25T10:09:04;10.67;;;9.57;;
19089;SDS011;9677;50.656;13.064;2022-08-25T10:11:39;12.33;;;9.43;;
19089;SDS011;9677;50.656;13.064;2022-08-25T10:14:18;12.10;;;9.70;;
19089;SDS011;9677;50.656;13.064;2022-08-25T10:17:10;17.50;;;9.60;;
19089;SDS011;9677;50.656;13.064;2022-08-25T10:19:43;10.80;;;9.70;;
19089;SDS011;9677;50.656;13.064;2022-08-25T10:22:19;10.33;;;9.27;;
19089;SDS011;9677;50.656;13.064;2022-08-25T10:24:52;11.00;;;9.50;;
19089;SDS011;9677;50.656;13.064;2022-08-25T10:27:22;10.20;;;9.10;;
19089;SDS011;9677;50.656;13.064;2022-08-25T10:30:05;10.03;;;9.03;;
19089;SDS011;9677;50.656;13.064;2022-08-25T10:32:46;11.53;;;9.63;;
19089;SDS011;9677;50.656;13.064;2022-08-25T10:35:53;11.10;;;9.50;;
19089;SDS011;9677;50.656;13.064;2022-08-25T10:38:31;11.70;;;9.80;;
19089;SDS011;9677;50.656;13.064;2022-08-25T10:44:07;12.50;;;9.60;;
19089;SDS011;9677;50.656;13.064;2022-08-25T10:47:11;13.53;;;9.40;;
19089;SDS011;9677;50.656;13.064;2022-08-25T10:50:00;10.30;;;9.30;;
19089;SDS011;9677;50.656;13.064;2022-08-25T10:52:36;10.50;;;9.20;;
19089;SDS011;9677;50.656;13.064;2022-08-25T10:55:24;13.30;;;9.63;;
19089;SDS011;9677;50.656;13.064;2022-08-25T10:58:07;10.50;;;9.50;;
19089;SDS011;9677;50.656;13.064;2022-08-25T11:00:58;13.40;;;9.60;;
19089;SDS011;9677;50.656;13.064;2022-08-25T11:03:38;10.60;;;9.47;;
19089;SDS011;9677;50.656;13.064;2022-08-25T11:06:16;10.20;;;9.10;;
19089;SDS011;9677;50.656;13.064;2022-08-25T11:08:50;10.57;;;9.50;;
19089;SDS011;9677;50.656;13.064;2022-08-25T11:11:25;11.70;;;10.17;;
19089;SDS011;9677;50.656;13.064;2022-08-25T11:14:02;13.10;;;10.20;;
19089;SDS011;9677;50.656;13.064;2022-08-25T11:16:37;11.23;;;9.77;;
19089;SDS011;9677;50.656;13.064;2022-08-25T11:19:15;11.83;;;9.70;;
19089;SDS011;9677;50.656;13.064;2022-08-25T11:21:48;10.90;;;9.70;;
19089;SDS011;9677;50.656;13.064;2022-08-25T11:24:28;11.70;;;10.10;;
19089;SDS011;9677;50.656;13.064;2022-08-25T11:27:10;15.10;;;11.00;;
19089;SDS011;9677;50.656;13.064;2022-08-25T11:29:48;11.53;;;9.50;;
19089;SDS011;9677;50.656;13.064;2022-08-25T11:32:27;11.03;;;9.70;;
19089;SDS011;9677;50.656;13.064;2022-08-25T11:34:59;11.43;;;9.20;;
19089;SDS011;9677;50.656;13.064;2022-08-25T11:37:29;18.93;;;9.60;;
19089;SDS011;9677;50.656;13.064;2022-08-25T11:40:10;10.80;;;9.60;;
19089;SDS011;9677;50.656;13.064;2022-08-25T11:42:59;10.50;;;9.30;;
19089;SDS011;9677;50.656;13.064;2022-08-25T11:45:47;10.63;;;9.53;;
19089;SDS011;9677;50.656;13.064;2022-08-25T11:48:32;10.50;;;9.50;;
19089;SDS011;9677;50.656;13.064;2022-08-25T11:51:09;11.13;;;9.50;;
19089;SDS011;9677;50.656;13.064;2022-08-25T11:54:04;11.77;;;9.63;;
19089;SDS011;9677;50.656;13.064;2022-08-25T11:56:56;10.60;;;9.43;;
19089;SDS011;9677;50.656;13.064;2022-08-25T12:02:38;12.50;;;9.53;;
19089;SDS011;9677;50.656;13.064;2022-08-25T12:05:10;14.97;;;9.73;;
19089;SDS011;9677;50.656;13.064;2022-08-25T12:08:12;10.60;;;9.20;;
19089;SDS011;9677;50.656;13.064;2022-08-25T12:10:59;13.00;;;9.73;;
19089;SDS011;9677;50.656;13.064;2022-08-25T12:13:41;10.50;;;9.40;;
19089;SDS011;9677;50.656;13.064;2022-08-25T12:19:48;12.67;;;9.53;;
19089;SDS011;9677;50.656;13.064;2022-08-25T12:22:52;11.17;;;9.97;;
19089;SDS011;9677;50.656;13.064;2022-08-25T12:25:34;12.10;;;9.40;;
19089;SDS011;9677;50.656;13.064;2022-08-25T12:28:30;10.50;;;9.40;;
19089;SDS011;9677;50.656;13.064;2022-08-25T12:31:23;11.80;;;9.60;;
19089;SDS011;9677;50.656;13.064;2022-08-25T12:34:21;10.43;;;9.30;;
19089;SDS011;9677;50.656;13.064;2022-08-25T12:37:04;13.77;;;9.37;;
19089;SDS011;9677;50.656;13.064;2022-08-25T12:39:43;12.50;;;9.70;;
19089;SDS011;9677;50.656;13.064;2022-08-25T12:42:29;11.23;;;9.57;;
19089;SDS011;9677;50.656;13.064;2022-08-25T12:45:09;11.53;;;9.53;;
19089;SDS011;9677;50.656;13.064;2022-08-25T12:47:45;10.30;;;9.30;;
19089;SDS011;9677;50.656;13.064;2022-08-25T12:50:30;11.27;;;9.60;;
19089;SDS011;9677;50.656;13.064;2022-08-25T12:53:10;11.50;;;9.30;;
19089;SDS011;9677;50.656;13.064;2022-08-25T12:55:45;10.10;;;9.10;;
19089;SDS011;9677;50.656;13.064;2022-08-25T12:58:30;11.90;;;9.60;;
19089;SDS011;9677;50.656;13.064;2022-08-25T13:01:30;12.20;;;9.10;;
19089;SDS011;9677;50.656;13.064;2022-08-25T13:04:25;11.70;;;9.07;;
19089;SDS011;9677;50.656;13.064;2022-08-25T13:07:16;15.60;;;9.30;;
19089;SDS011;9677;50.656;13.064;2022-08-25T13:10:03;12.30;;;9.20;;
19089;SDS011;9677;50.656;13.064;2022-08-25T13:12:46;10.50;;;9.20;;
19089;SDS011;9677;50.656;13.064;2022-08-25T13:15:26;13.00;;;9.50;;
19089;SDS011;9677;50.656;13.064;2022-08-25T13:18:18;12.83;;;9.67;;
19089;SDS011;9677;50.656;13.064;2022-08-25T13:20:50;10.57;;;9.47;;
19089;SDS011;9677;50.656;13.064;2022-08-25T13:23:24;10.63;;;9.00;;
19089;SDS011;9677;50.656;13.064;2022-08-25T13:25:55;13.43;;;9.13;;
19089;SDS011;9677;50.656;13.064;2022-08-25T13:28:26;16.53;;;10.20;;
19089;SDS011;9677;50.656;13.064;2022-08-25T13:31:04;12.20;;;9.53;;
19089;SDS011;9677;50.656;13.064;2022-08-25T13:33:37;11.03;;;8.90;;
19089;SDS011;9677;50.656;13.064;2022-08-25T13:36:05;11.00;;;9.20;;
19089;SDS011;9677;50.656;13.064;2022-08-25T13:39:09;12.37;;;9.50;;
19089;SDS011;9677;50.656;13.064;2022-08-25T13:41:45;10.47;;;9.37;;
19089;SDS011;9677;50.656;13.064;2022-08-25T13:44:21;13.60;;;9.30;;
19089;SDS011;9677;50.656;13.064;2022-08-25T13:47:04;11.73;;;9.37;;
19089;SDS011;9677;50.656;13.064;2022-08-25T13:49:36;11.97;;;9.13;;
19089;SDS011;9677;50.656;13.064;2022-08-25T13:52:07;11.03;;;9.53;;
19089;SDS011;9677;50.656;13.064;2022-08-25T13:54:56;10.53;;;9.43;;
19089;SDS011;9677;50.656;13.064;2022-08-25T13:57:30;10.07;;;9.07;;
19089;SDS011;9677;50.656;13.064;2022-08-25T14:00:03;16.70;;;9.33;;
19089;SDS011;9677;50.656;13.064;2022-08-25T14:02:40;13.63;;;9.53;;
19089;SDS011;9677;50.656;13.064;2022-08-25T14:05:29;14.53;;;9.30;;
19089;SDS011;9677;50.656;13.064;2022-08-25T14:08:02;11.70;;;9.47;;
19089;SDS011;9677;50.656;13.064;2022-08-25T14:10:52;10.30;;;9.10;;
19089;SDS011;9677;50.656;13.064;2022-08-25T14:13:40;12.17;;;9.97;;
19089;SDS011;9677;50.656;13.064;2022-08-25T14:16:12;11.03;;;9.37;;
19089;SDS011;9677;50.656;13.064;2022-08-25T14:18:46;10.60;;;9.50;;
19089;SDS011;9677;50.656;13.064;2022-08-25T14:21:19;10.60;;;9.30;;
19089;SDS011;9677;50.656;13.064;2022-08-25T14:23:52;11.90;;;9.50;;
19089;SDS011;9677;50.656;13.064;2022-08-25T14:26:22;10.47;;;9.37;;
19089;SDS011;9677;50.656;13.064;2022-08-25T14:28:52;10.50;;;9.20;;
19089;SDS011;9677;50.656;13.064;2022-08-25T14:31:22;10.57;;;9.47;;
19089;SDS011;9677;50.656;13.064;2022-08-25T14:33:55;10.20;;;9.20;;
19089;SDS011;9677;50.656;13.064;2022-08-25T14:36:28;12.37;;;9.80;;
19089;SDS011;9677;50.656;13.064;2022-08-25T14:39:18;10.73;;;9.47;;
19089;SDS011;9677;50.656;13.064;2022-08-25T14:41:47;11.70;;;9.77;;
19089;SDS011;9677;50.656;13.064;2022-08-25T14:44:19;12.40;;;10.33;;
19089;SDS011;9677;50.656;13.064;2022-08-25T14:46:49;12.43;;;9.70;;
19089;SDS011;9677;50.656;13.064;2022-08-25T14:49:20;10.23;;;9.13;;
19089;SDS011;9677;50.656;13.064;2022-08-25T14:51:54;10.90;;;9.80;;
19089;SDS011;9677;50.656;13.064;2022-08-25T14:54:25;10.73;;;9.63;;
19089;SDS011;9677;50.656;13.064;2022-08-25T14:56:54;11.13;;;9.60;;
19089;SDS011;9677;50.656;13.064;2022-08-25T14:59:23;10.40;;;9.37;;
19089;SDS011;9677;50.656;13.064;2022-08-25T15:01:52;10.33;;;9.23;;
19089;SDS011;9677;50.656;13.064;2022-08-25T15:04:24;13.43;;;9.87;;
19089;SDS011;9677;50.656;13.064;2022-08-25T15:06:57;10.50;;;9.40;;
19089;SDS011;9677;50.656;13.064;2022-08-25T15:09:28;10.90;;;9.80;;
19089;SDS011;9677;50.656;13.064;2022-08-25T15:11:59;12.13;;;9.20;;
19089;SDS011;9677;50.656;13.064;2022-08-25T15:14:27;13.00;;;9.90;;
19089;SDS011;9677;50.656;13.064;2022-08-25T15:16:58;11.43;;;9.23;;
19089;SDS011;9677;50.656;13.064;2022-08-25T15:19:29;10.00;;;9.00;;